Marie S. Settoon — WDD4716 — position and weather

sailwx.info

Track history (hours):
 
Tides and Currents Weather Stations Pressure Air Temp Water Temp Dewpoint Dewpoint Depression Visibility Wind Speed Wind Dir Waves Ship Positions

Marie S. Settoon

Owner: Settoon Towing LLC, Houma, LA. More information available from US FCC via Universal Licensing System and Coast Guard Vessel Documentation Center.

Last reported at 2017-Oct-22 01:50 UTC. Time now 2017-Oct-22 06:08 UTC.
Position N 29°32' W 090°50'.

Length 17 m; draft 3.5 m.

Type: Tug. MMSI: 367003170.

Date/timePositionNaut miles runAvg speedWind from/ knotsBaromVisibWave heightAir tempDewpointWater temp
2017-Oct-22 01:50N 29°32' W 090°50'2 6.4
2017-Oct-22 01:30N 29°32' W 090°48'3 5.5
2017-Oct-22 01:00N 29°33' W 090°45'2 4.4
2017-Oct-22 00:30N 29°35' W 090°43'0 0.0
2017-Oct-22 00:00N 29°35' W 090°43'1 2.9
2017-Oct-21 23:30N 29°36' W 090°43'1 1.7
2017-Oct-21 23:00N 29°37' W 090°42'1 1.8
2017-Oct-21 22:30N 29°36' W 090°41'3 5.5
2017-Oct-21 22:00N 29°35' W 090°38'3 5.5
2017-Oct-21 21:30N 29°35' W 090°35'  
2017-Oct-19 12:10N 29°34' W 090°29'1 4.8
2017-Oct-19 12:00N 29°34' W 090°30'2 4.8
2017-Oct-19 11:30N 29°34' W 090°32'2 4.7
2017-Oct-19 11:00N 29°35' W 090°35'3 5.3
2017-Oct-19 10:30N 29°35' W 090°38'3 6.1
2017-Oct-19 10:00N 29°36' W 090°41'2 3.5
2017-Oct-19 09:30N 29°35' W 090°43'1 1.1
2017-Oct-19 09:00N 29°35' W 090°43'0 0.4
2017-Oct-19 08:30N 29°35' W 090°43'2 4.2
2017-Oct-19 08:00N 29°33' W 090°45'3 6.1
2017-Oct-19 07:30N 29°32' W 090°48'5 6.8
2017-Oct-19 06:48N 29°33' W 090°54'5 7.0
2017-Oct-19 06:09N 29°35' W 090°58'  
2017-Oct-16 16:44N 29°32' W 090°51'2 6.8
2017-Oct-16 16:30N 29°32' W 090°49'3 6.1
2017-Oct-16 16:00N 29°33' W 090°45'3 5.1
2017-Oct-16 15:30N 29°34' W 090°43'0 0.9
2017-Oct-16 15:00N 29°35' W 090°43'0 0.0
2017-Oct-16 14:00N 29°35' W 090°43'0 0.0
2017-Oct-16 13:30N 29°35' W 090°43'0 0.0
2017-Oct-16 13:00N 29°35' W 090°43'0 0.0
2017-Oct-16 12:30N 29°35' W 090°43'0 0.0
2017-Oct-16 12:00N 29°35' W 090°43'0 0.0
2017-Oct-16 11:30N 29°35' W 090°43'0 0.0
2017-Oct-16 11:00N 29°35' W 090°43'0 0.0
2017-Oct-16 10:30N 29°35' W 090°43'0 0.0
2017-Oct-16 10:00N 29°35' W 090°43'0 0.0
2017-Oct-16 09:30N 29°35' W 090°43'0 0.0
2017-Oct-16 09:00N 29°35' W 090°43'0 0.0
2017-Oct-16 08:30N 29°35' W 090°43'0 0.0
2017-Oct-16 08:00N 29°35' W 090°43'0 0.0
2017-Oct-16 07:30N 29°35' W 090°43'0 0.0
2017-Oct-16 07:00N 29°35' W 090°43'0 0.0
2017-Oct-16 06:30N 29°35' W 090°43'0 0.0
2017-Oct-16 06:00N 29°35' W 090°43'0 0.0
2017-Oct-16 05:30N 29°35' W 090°43'0 0.0
2017-Oct-16 04:30N 29°35' W 090°43'0 0.0
2017-Oct-16 04:00N 29°35' W 090°43'0 0.0
2017-Oct-16 03:30N 29°35' W 090°43'0 0.0
2017-Oct-16 03:00N 29°35' W 090°43'0 0.0
2017-Oct-16 02:30N 29°35' W 090°43'0 0.0
2017-Oct-16 02:00N 29°35' W 090°43'0 0.0
2017-Oct-16 01:30N 29°35' W 090°43'0 0.0
2017-Oct-16 01:00N 29°35' W 090°43'0 0.0
2017-Oct-16 00:30N 29°35' W 090°43'0 0.0
2017-Oct-16 00:00N 29°35' W 090°43'0 0.0
2017-Oct-15 23:30N 29°35' W 090°43'0 0.0
2017-Oct-15 23:00N 29°35' W 090°43'0 0.0
2017-Oct-15 22:30N 29°35' W 090°43'2 3.6
2017-Oct-15 22:00N 29°37' W 090°42'3 5.2
2017-Oct-15 21:30N 29°36' W 090°40'3 5.9
2017-Oct-15 21:00N 29°35' W 090°36'7 0.3
2017-Oct-14 19:35N 29°34' W 090°28'0 5.9
2017-Oct-14 19:30N 29°34' W 090°29'3 5.8
2017-Oct-14 19:00N 29°34' W 090°32'3 5.7
2017-Oct-14 18:30N 29°35' W 090°35'2 4.8
2017-Oct-14 18:00N 29°35' W 090°38'3 5.5
2017-Oct-14 17:30N 29°36' W 090°41'2 3.3
2017-Oct-14 17:00N 29°36' W 090°43'2 4.2
2017-Oct-14 16:30N 29°34' W 090°44'1 2.4
2017-Oct-14 16:00N 29°33' W 090°45'0 0.0
2017-Oct-14 15:30N 29°33' W 090°45'1 1.6
2017-Oct-14 15:00N 29°33' W 090°46'2 5.0
2017-Oct-14 14:30N 29°32' W 090°48'  
Track history (hours):
 
Tides and Currents Weather Stations Pressure Air Temp Water Temp Dewpoint Dewpoint Depression Visibility Wind Speed Wind Dir Waves Ship Positions

Marie S. Settoon

Owner: Settoon Towing LLC, Houma, LA. More information available from US FCC via Universal Licensing System and Coast Guard Vessel Documentation Center.

Last reported at 2017-Oct-22 01:50 UTC. Time now 2017-Oct-22 06:08 UTC.
Position N 29°32' W 090°50'.

Length 17 m; draft 3.5 m.

Type: Tug. MMSI: 367003170.

Date/timePositionNaut miles runAvg speedWind from/ knotsBaromVisibWave heightAir tempDewpointWater temp
2017-Oct-22 01:50N 29°32' W 090°50'2 6.4
2017-Oct-22 01:30N 29°32' W 090°48'3 5.5
2017-Oct-22 01:00N 29°33' W 090°45'2 4.4
2017-Oct-22 00:30N 29°35' W 090°43'0 0.0
2017-Oct-22 00:00N 29°35' W 090°43'1 2.9
2017-Oct-21 23:30N 29°36' W 090°43'1 1.7
2017-Oct-21 23:00N 29°37' W 090°42'1 1.8
2017-Oct-21 22:30N 29°36' W 090°41'3 5.5
2017-Oct-21 22:00N 29°35' W 090°38'3 5.5
2017-Oct-21 21:30N 29°35' W 090°35'  
2017-Oct-19 12:10N 29°34' W 090°29'1 4.8
2017-Oct-19 12:00N 29°34' W 090°30'2 4.8
2017-Oct-19 11:30N 29°34' W 090°32'2 4.7
2017-Oct-19 11:00N 29°35' W 090°35'3 5.3
2017-Oct-19 10:30N 29°35' W 090°38'3 6.1
2017-Oct-19 10:00N 29°36' W 090°41'2 3.5
2017-Oct-19 09:30N 29°35' W 090°43'1 1.1
2017-Oct-19 09:00N 29°35' W 090°43'0 0.4
2017-Oct-19 08:30N 29°35' W 090°43'2 4.2
2017-Oct-19 08:00N 29°33' W 090°45'3 6.1
2017-Oct-19 07:30N 29°32' W 090°48'5 6.8
2017-Oct-19 06:48N 29°33' W 090°54'5 7.0
2017-Oct-19 06:09N 29°35' W 090°58'  
2017-Oct-16 16:44N 29°32' W 090°51'2 6.8
2017-Oct-16 16:30N 29°32' W 090°49'3 6.1
2017-Oct-16 16:00N 29°33' W 090°45'3 5.1
2017-Oct-16 15:30N 29°34' W 090°43'0 0.9
2017-Oct-16 15:00N 29°35' W 090°43'0 0.0
2017-Oct-16 14:00N 29°35' W 090°43'0 0.0
2017-Oct-16 13:30N 29°35' W 090°43'0 0.0
2017-Oct-16 13:00N 29°35' W 090°43'0 0.0
2017-Oct-16 12:30N 29°35' W 090°43'0 0.0
2017-Oct-16 12:00N 29°35' W 090°43'0 0.0
2017-Oct-16 11:30N 29°35' W 090°43'0 0.0
2017-Oct-16 11:00N 29°35' W 090°43'0 0.0
2017-Oct-16 10:30N 29°35' W 090°43'0 0.0
2017-Oct-16 10:00N 29°35' W 090°43'0 0.0
2017-Oct-16 09:30N 29°35' W 090°43'0 0.0
2017-Oct-16 09:00N 29°35' W 090°43'0 0.0
2017-Oct-16 08:30N 29°35' W 090°43'0 0.0
2017-Oct-16 08:00N 29°35' W 090°43'0 0.0
2017-Oct-16 07:30N 29°35' W 090°43'0 0.0
2017-Oct-16 07:00N 29°35' W 090°43'0 0.0
2017-Oct-16 06:30N 29°35' W 090°43'0 0.0
2017-Oct-16 06:00N 29°35' W 090°43'0 0.0
2017-Oct-16 05:30N 29°35' W 090°43'0 0.0
2017-Oct-16 04:30N 29°35' W 090°43'0 0.0
2017-Oct-16 04:00N 29°35' W 090°43'0 0.0
2017-Oct-16 03:30N 29°35' W 090°43'0 0.0
2017-Oct-16 03:00N 29°35' W 090°43'0 0.0
2017-Oct-16 02:30N 29°35' W 090°43'0 0.0
2017-Oct-16 02:00N 29°35' W 090°43'0 0.0
2017-Oct-16 01:30N 29°35' W 090°43'0 0.0
2017-Oct-16 01:00N 29°35' W 090°43'0 0.0
2017-Oct-16 00:30N 29°35' W 090°43'0 0.0
2017-Oct-16 00:00N 29°35' W 090°43'0 0.0
2017-Oct-15 23:30N 29°35' W 090°43'0 0.0
2017-Oct-15 23:00N 29°35' W 090°43'0 0.0
2017-Oct-15 22:30N 29°35' W 090°43'2 3.6
2017-Oct-15 22:00N 29°37' W 090°42'3 5.2
2017-Oct-15 21:30N 29°36' W 090°40'3 5.9
2017-Oct-15 21:00N 29°35' W 090°36'7 0.3
2017-Oct-14 19:35N 29°34' W 090°28'0 5.9
2017-Oct-14 19:30N 29°34' W 090°29'3 5.8
2017-Oct-14 19:00N 29°34' W 090°32'3 5.7
2017-Oct-14 18:30N 29°35' W 090°35'2 4.8
2017-Oct-14 18:00N 29°35' W 090°38'3 5.5
2017-Oct-14 17:30N 29°36' W 090°41'2 3.3
2017-Oct-14 17:00N 29°36' W 090°43'2 4.2
2017-Oct-14 16:30N 29°34' W 090°44'1 2.4
2017-Oct-14 16:00N 29°33' W 090°45'0 0.0
2017-Oct-14 15:30N 29°33' W 090°45'1 1.6
2017-Oct-14 15:00N 29°33' W 090°46'2 5.0
2017-Oct-14 14:30N 29°32' W 090°48'  

Dump ship's entire track history